createdAt,value
2018-11-04T00:00:02.113Z,90.99
2018-11-04T00:02:31.152Z,91.61
2018-11-04T00:04:59.777Z,91.81
2018-11-04T00:07:28.432Z,92.39
2018-11-04T00:09:57.068Z,92.00
2018-11-04T00:12:25.700Z,92.12
2018-11-04T00:14:54.364Z,92.53
2018-11-04T00:17:23.000Z,91.59
2018-11-04T00:19:51.644Z,91.74
2018-11-04T00:22:20.286Z,91.76
2018-11-04T00:24:48.936Z,91.71
2018-11-04T00:27:17.845Z,92.07
2018-11-04T00:29:46.513Z,92.40
2018-11-04T00:32:15.020Z,92.55
2018-11-04T00:34:43.700Z,92.10
2018-11-04T00:37:12.306Z,92.29
2018-11-04T00:39:40.956Z,92.70
2018-11-04T00:42:09.573Z,92.44
2018-11-04T00:44:38.192Z,92.13
2018-11-04T00:47:07.428Z,92.48
2018-11-04T00:49:36.109Z,92.42
2018-11-04T00:52:05.212Z,92.76
2018-11-04T00:54:33.868Z,92.71
2018-11-04T00:57:02.487Z,92.25
2018-11-04T00:59:31.144Z,92.14
2018-11-04T01:01:59.801Z,92.37
2018-11-04T01:04:28.443Z,92.45
2018-11-04T01:06:57.156Z,92.54
2018-11-04T01:09:25.791Z,92.02
2018-11-04T01:11:54.411Z,92.55
2018-11-04T01:14:23.043Z,92.37
2018-11-04T01:16:51.711Z,92.42
2018-11-04T01:19:20.384Z,92.15
2018-11-04T01:21:49.036Z,92.14
2018-11-04T01:24:17.678Z,92.08
2018-11-04T01:26:46.298Z,92.37
2018-11-04T01:29:15.101Z,92.38
2018-11-04T01:31:43.699Z,92.26
2018-11-04T01:34:12.351Z,92.54
2018-11-04T01:36:40.984Z,92.67
2018-11-04T01:39:10.544Z,92.32
2018-11-04T01:41:39.512Z,92.55
2018-11-04T01:44:10.703Z,92.72
2018-11-04T01:46:40.296Z,92.34
2018-11-04T01:49:09.184Z,92.56
2018-11-04T01:51:37.805Z,92.82
2018-11-04T01:54:06.680Z,93.09
2018-11-04T01:56:35.343Z,92.90
2018-11-04T01:59:04.220Z,92.85
2018-11-04T02:01:32.856Z,92.42
2018-11-04T02:04:01.504Z,92.37
2018-11-04T02:06:30.160Z,92.44
2018-11-04T02:08:58.815Z,92.36
2018-11-04T02:11:27.435Z,92.52
2018-11-04T02:13:56.202Z,92.42
2018-11-04T02:16:24.811Z,92.47
2018-11-04T02:18:53.443Z,92.26
2018-11-04T02:21:22.124Z,92.91
2018-11-04T02:23:50.762Z,92.38
2018-11-04T02:26:19.573Z,92.41
2018-11-04T02:28:48.236Z,92.61
2018-11-04T02:31:16.912Z,93.00
2018-11-04T02:33:45.581Z,93.12
2018-11-04T02:36:14.236Z,93.54
2018-11-04T02:38:42.882Z,93.94
2018-11-04T02:41:11.545Z,93.63
2018-11-04T02:43:40.215Z,93.76
2018-11-04T02:46:08.958Z,93.70
2018-11-04T02:48:37.952Z,93.72
2018-11-04T02:51:06.577Z,93.59
2018-11-04T02:53:35.224Z,93.24
2018-11-04T02:56:03.843Z,93.32
2018-11-04T02:58:32.469Z,93.74
2018-11-04T03:01:01.180Z,93.64
2018-11-04T03:03:29.864Z,93.33
2018-11-04T03:05:58.520Z,93.28
2018-11-04T03:08:27.168Z,93.28
2018-11-04T03:10:55.812Z,93.30
2018-11-04T03:13:24.455Z,93.16
2018-11-04T03:15:53.089Z,93.22
2018-11-04T03:18:21.755Z,93.09
2018-11-04T03:20:50.377Z,93.26
2018-11-04T03:23:19.023Z,92.98
2018-11-04T03:25:48.688Z,93.38
2018-11-04T03:28:17.317Z,93.41
2018-11-04T03:30:46.041Z,92.75
2018-11-04T03:33:14.648Z,93.34
2018-11-04T03:35:43.281Z,93.12
2018-11-04T03:38:11.896Z,93.19
2018-11-04T03:40:40.576Z,93.54
2018-11-04T03:43:09.347Z,93.33
2018-11-04T03:45:37.979Z,93.90
2018-11-04T03:48:06.652Z,93.93
2018-11-04T03:50:35.284Z,93.72
2018-11-04T03:53:04.780Z,93.91
2018-11-04T03:55:34.009Z,94.09
2018-11-04T03:58:02.832Z,93.81
2018-11-04T04:00:31.513Z,93.68
2018-11-04T04:03:00.133Z,93.75
2018-11-04T04:05:28.837Z,93.66
2018-11-04T04:07:57.701Z,93.57
2018-11-04T04:10:26.340Z,93.43
2018-11-04T04:12:54.957Z,92.91
2018-11-04T04:15:23.636Z,92.90
2018-11-04T04:17:52.279Z,92.74
2018-11-04T04:20:20.961Z,92.93
2018-11-04T04:22:49.580Z,93.34
2018-11-04T04:25:18.216Z,93.45
2018-11-04T04:27:46.888Z,93.45
2018-11-04T04:30:15.548Z,93.71
2018-11-04T04:32:44.240Z,93.98
2018-11-04T04:35:12.877Z,93.70
2018-11-04T04:37:41.992Z,93.48
2018-11-04T04:40:11.065Z,93.12
2018-11-04T04:42:39.697Z,93.32
2018-11-04T04:45:08.353Z,93.03
2018-11-04T04:47:36.980Z,93.41
2018-11-04T04:50:05.644Z,93.41
2018-11-04T04:52:34.285Z,93.36
2018-11-04T04:55:02.964Z,93.24
2018-11-04T04:57:31.598Z,92.98
2018-11-04T05:00:00.409Z,93.06
2018-11-04T05:02:29.132Z,92.96
2018-11-04T05:04:58.297Z,92.91
2018-11-04T05:07:26.996Z,93.24
2018-11-04T05:09:55.821Z,93.03
2018-11-04T05:12:24.698Z,92.96
2018-11-04T05:14:53.316Z,92.69
2018-11-04T05:17:22.169Z,92.74
2018-11-04T05:19:50.799Z,93.28
2018-11-04T05:22:19.426Z,93.60
2018-11-04T05:24:48.124Z,93.64
2018-11-04T05:27:16.796Z,93.42
2018-11-04T05:29:45.432Z,93.44
2018-11-04T05:32:14.173Z,93.40
2018-11-04T05:34:43.422Z,93.28
2018-11-04T05:37:12.036Z,93.06
2018-11-04T05:39:40.728Z,93.48
2018-11-04T05:42:09.354Z,93.80
2018-11-04T05:44:38.107Z,93.57
2018-11-04T05:47:07.211Z,93.92
2018-11-04T05:49:35.852Z,93.44
2018-11-04T05:52:04.493Z,93.46
2018-11-04T05:54:33.187Z,93.29
2018-11-04T05:57:01.789Z,93.64
2018-11-04T05:59:30.432Z,93.61
2018-11-04T06:01:59.155Z,93.48
2018-11-04T06:04:27.871Z,93.59
2018-11-04T06:06:56.496Z,93.24
2018-11-04T06:09:25.143Z,93.63
2018-11-04T06:11:53.751Z,93.68
2018-11-04T06:14:22.375Z,93.77
2018-11-04T06:16:51.036Z,93.67
2018-11-04T06:19:19.735Z,94.00
2018-11-04T06:21:48.401Z,93.86
2018-11-04T06:24:17.172Z,94.11
2018-11-04T06:26:45.906Z,93.98
2018-11-04T06:29:14.543Z,94.04
2018-11-04T06:31:43.226Z,93.92
2018-11-04T06:34:11.928Z,93.92
2018-11-04T06:36:40.561Z,94.19
2018-11-04T06:39:09.673Z,94.35
2018-11-04T06:41:38.484Z,94.25
2018-11-04T06:44:07.472Z,94.21
2018-11-04T06:46:36.348Z,94.16
2018-11-04T06:49:06.385Z,94.14
2018-11-04T06:51:35.170Z,94.32
2018-11-04T06:54:04.106Z,94.19
2018-11-04T06:56:33.029Z,94.06
2018-11-04T06:59:01.734Z,94.12
2018-11-04T07:01:30.378Z,94.12
2018-11-04T07:04:10.749Z,94.19
2018-11-04T07:06:39.437Z,96.94
2018-11-04T07:09:08.876Z,96.02
2018-11-04T07:11:37.480Z,94.48
2018-11-04T07:14:06.085Z,92.84
2018-11-04T07:16:34.776Z,93.04
2018-11-04T07:19:03.413Z,93.37
2018-11-04T07:21:32.061Z,93.11
2018-11-04T07:24:00.717Z,93.18
2018-11-04T07:26:29.374Z,93.48
2018-11-04T07:28:58.173Z,93.61
2018-11-04T07:31:26.818Z,93.58
2018-11-04T07:33:55.465Z,93.94
2018-11-04T07:36:24.317Z,93.71
2018-11-04T07:38:52.973Z,94.02
2018-11-04T07:41:21.636Z,94.19
2018-11-04T07:43:50.495Z,94.22
2018-11-04T07:46:19.680Z,94.14
2018-11-04T07:48:48.875Z,93.99
2018-11-04T07:51:17.889Z,94.17
2018-11-04T07:53:46.764Z,94.05
2018-11-04T07:56:15.977Z,94.16
2018-11-04T07:58:44.795Z,94.03
2018-11-04T08:01:14.000Z,94.08
2018-11-04T08:03:42.688Z,94.10
2018-11-04T08:06:11.411Z,93.72
2018-11-04T08:08:40.084Z,93.70
2018-11-04T08:11:08.803Z,93.56
2018-11-04T08:13:37.525Z,93.58
2018-11-04T08:16:08.891Z,93.25
2018-11-04T08:18:37.988Z,93.51
2018-11-04T08:21:06.722Z,93.12
2018-11-04T08:23:35.421Z,92.93
2018-11-04T08:26:04.350Z,93.20
2018-11-04T08:28:33.025Z,92.96
2018-11-04T08:31:01.708Z,93.16
2018-11-04T08:33:30.393Z,92.78
2018-11-04T08:35:59.089Z,92.65
2018-11-04T08:38:27.771Z,92.19
2018-11-04T08:40:56.416Z,92.35
2018-11-04T08:43:25.144Z,92.20
2018-11-04T08:45:53.920Z,92.78
2018-11-04T08:48:22.520Z,92.20
2018-11-04T08:50:51.192Z,92.32
2018-11-04T08:53:19.836Z,92.29
2018-11-04T08:55:48.509Z,92.31
2018-11-04T08:58:17.177Z,92.40
2018-11-04T09:00:45.846Z,92.33
2018-11-04T09:03:14.654Z,91.52
2018-11-04T09:05:43.278Z,91.45
2018-11-04T09:08:11.970Z,91.48
2018-11-04T09:10:40.681Z,91.05
2018-11-04T09:13:09.410Z,91.45
2018-11-04T09:15:38.428Z,91.15
2018-11-04T09:18:07.366Z,91.47
2018-11-04T09:20:35.986Z,91.06
2018-11-04T09:23:05.170Z,91.58
2018-11-04T09:25:33.796Z,91.77
2018-11-04T09:28:02.468Z,91.13
2018-11-04T09:30:31.096Z,90.93
2018-11-04T09:32:59.815Z,91.28
2018-11-04T09:35:28.627Z,91.03
2018-11-04T09:37:57.266Z,91.10
2018-11-04T09:40:26.017Z,91.27
2018-11-04T09:42:54.704Z,91.38
2018-11-04T09:45:23.577Z,91.33
2018-11-04T09:47:52.240Z,90.91
2018-11-04T09:50:20.924Z,90.56
2018-11-04T09:52:49.736Z,90.24
2018-11-04T09:55:18.681Z,90.43
2018-11-04T09:57:47.273Z,90.36
2018-11-04T10:00:16.000Z,90.36
2018-11-04T10:02:44.660Z,89.76
2018-11-04T10:05:13.320Z,90.29
2018-11-04T10:07:42.233Z,90.16
2018-11-04T10:10:12.587Z,90.20
2018-11-04T10:12:42.380Z,90.34
2018-11-04T10:15:11.293Z,89.91
2018-11-04T10:17:40.732Z,90.09
2018-11-04T10:20:10.969Z,89.86
2018-11-04T10:22:40.051Z,89.82
2018-11-04T10:25:09.977Z,89.59
2018-11-04T10:27:39.044Z,89.57
2018-11-04T10:30:09.771Z,89.29
2018-11-04T10:32:38.568Z,89.82
2018-11-04T10:35:07.950Z,89.33
2018-11-04T10:37:36.799Z,89.30
2018-11-04T10:40:06.599Z,89.49
2018-11-04T10:42:35.254Z,89.43
2018-11-04T10:45:04.288Z,89.69
2018-11-04T10:47:33.187Z,89.91
2018-11-04T10:50:01.979Z,90.24
2018-11-04T10:52:30.664Z,89.56
2018-11-04T10:55:00.821Z,89.70
2018-11-04T10:57:31.759Z,89.73
2018-11-04T11:00:00.422Z,90.15
2018-11-04T11:02:33.636Z,90.01
2018-11-04T11:05:02.322Z,90.15
2018-11-04T11:07:30.940Z,89.77
2018-11-04T11:10:00.489Z,90.16
2018-11-04T11:12:29.206Z,90.04
2018-11-04T11:15:05.330Z,90.13
2018-11-04T11:17:34.000Z,89.76
2018-11-04T11:20:04.920Z,89.76
2018-11-04T11:22:33.683Z,90.12
2018-11-04T11:25:02.217Z,90.52
2018-11-04T11:27:30.943Z,90.21
2018-11-04T11:30:00.159Z,90.38
2018-11-04T11:32:29.837Z,90.61
2018-11-04T11:35:01.044Z,90.94
2018-11-04T11:37:29.875Z,90.99
2018-11-04T11:39:58.576Z,91.20
2018-11-04T11:42:29.005Z,91.22
2018-11-04T11:44:57.949Z,91.22
2018-11-04T11:47:26.517Z,90.78
2018-11-04T11:49:57.269Z,91.21
2018-11-04T11:52:26.117Z,91.52
2018-11-04T11:54:55.457Z,91.13
2018-11-04T11:57:24.087Z,91.56
2018-11-04T11:59:52.757Z,91.93
2018-11-04T12:02:21.479Z,91.55
2018-11-04T12:04:51.089Z,91.64
2018-11-04T12:07:20.578Z,91.70
2018-11-04T12:09:49.594Z,91.64
2018-11-04T12:12:18.237Z,91.64
2018-11-04T12:14:46.908Z,91.50
2018-11-04T12:17:15.552Z,91.70
2018-11-04T12:19:45.703Z,91.80
2018-11-04T12:22:15.367Z,91.53
2018-11-04T12:24:44.005Z,91.83
2018-11-04T12:27:12.653Z,91.50
2018-11-04T12:29:41.281Z,91.32
2018-11-04T12:32:10.090Z,91.39
2018-11-04T12:34:38.994Z,91.24
2018-11-04T12:37:09.973Z,91.44
2018-11-04T12:39:38.588Z,91.09
2018-11-04T12:42:07.220Z,91.30
2018-11-04T12:44:36.230Z,91.29
2018-11-04T12:47:06.601Z,91.81
2018-11-04T12:49:35.608Z,91.58
2018-11-04T12:52:04.326Z,91.39
2018-11-04T12:54:32.949Z,91.40
2018-11-04T12:57:01.570Z,90.80
2018-11-04T12:59:31.100Z,90.79
2018-11-04T13:02:00.276Z,90.47
2018-11-04T13:04:33.097Z,90.78
2018-11-04T13:07:01.752Z,91.07
2018-11-04T13:09:30.675Z,90.94
2018-11-04T13:11:59.798Z,90.81
2018-11-04T13:14:29.746Z,90.81
2018-11-04T13:16:58.372Z,91.40
2018-11-04T13:19:27.520Z,91.55
2018-11-04T13:21:56.267Z,91.55
2018-11-04T13:24:25.343Z,91.27
2018-11-04T13:26:54.559Z,91.14
2018-11-04T13:29:23.673Z,90.12
2018-11-04T13:31:52.468Z,91.03
2018-11-04T13:34:22.308Z,91.44
2018-11-04T13:36:51.316Z,91.35
2018-11-04T13:39:20.349Z,91.44
2018-11-04T13:41:49.160Z,90.78
2018-11-04T13:44:18.516Z,91.31
2018-11-04T13:46:47.346Z,90.63
2018-11-04T13:49:17.313Z,91.55
2018-11-04T13:51:47.658Z,91.93
2018-11-04T13:54:16.926Z,91.68
2018-11-04T13:56:49.341Z,91.25
2018-11-04T13:59:22.861Z,91.55
2018-11-04T14:01:51.819Z,91.49
2018-11-04T14:04:20.560Z,91.51
2018-11-04T14:06:53.921Z,91.26
2018-11-04T14:09:22.701Z,91.42
2018-11-04T14:11:53.068Z,91.51
2018-11-04T14:14:21.853Z,91.42
2018-11-04T14:16:50.642Z,91.58
2018-11-04T14:19:19.435Z,92.01
2018-11-04T14:21:48.308Z,91.32
2018-11-04T14:24:21.064Z,91.63
2018-11-04T14:26:51.853Z,91.45
2018-11-04T14:29:21.257Z,91.44
2018-11-04T14:31:50.704Z,91.43
2018-11-04T14:34:21.073Z,91.00
2018-11-04T14:36:50.848Z,90.64
2018-11-04T14:39:20.167Z,90.62
2018-11-04T14:41:48.779Z,90.29
2018-11-04T14:44:17.757Z,90.45
2018-11-04T14:46:46.413Z,90.29
2018-11-04T14:49:19.464Z,90.45
2018-11-04T14:51:48.224Z,90.49
2018-11-04T14:54:16.987Z,90.71
2018-11-04T14:56:45.718Z,90.77
2018-11-04T14:59:14.371Z,90.77
2018-11-04T15:01:43.508Z,90.74
2018-11-04T15:04:14.936Z,90.83
2018-11-04T15:06:47.546Z,90.84
2018-11-04T15:09:16.157Z,91.05
2018-11-04T15:11:46.026Z,90.85
2018-11-04T15:14:14.683Z,91.18
2018-11-04T15:16:43.420Z,91.32
2018-11-04T15:19:13.797Z,91.26
2018-11-04T15:21:42.305Z,91.05
2018-11-04T15:24:11.020Z,91.06
2018-11-04T15:26:39.740Z,91.16
2018-11-04T15:29:09.215Z,91.12
2018-11-04T15:31:38.053Z,90.94
2018-11-04T15:34:06.989Z,90.96
2018-11-04T15:36:37.410Z,90.90
2018-11-04T15:39:10.425Z,90.78
2018-11-04T15:41:39.723Z,90.86
2018-11-04T15:44:09.009Z,91.03
2018-11-04T15:46:37.949Z,90.93
2018-11-04T15:49:07.163Z,91.24
2018-11-04T15:51:35.736Z,91.01
2018-11-04T15:54:04.396Z,90.48
2018-11-04T15:56:33.841Z,90.60
2018-11-04T15:59:02.492Z,90.27
2018-11-04T16:01:32.845Z,90.12
2018-11-04T16:04:01.570Z,90.54
2018-11-04T16:06:30.655Z,90.45
2018-11-04T16:08:59.413Z,90.59
2018-11-04T16:11:28.133Z,90.51
2018-11-04T16:13:56.784Z,90.26
2018-11-04T16:16:26.245Z,90.67
2018-11-04T16:18:55.106Z,90.45
2018-11-04T16:21:23.730Z,90.13
2018-11-04T16:23:52.376Z,89.84
2018-11-04T16:26:21.005Z,89.58
2018-11-04T16:28:50.728Z,89.87
2018-11-04T16:31:19.493Z,89.99
2018-11-04T16:33:48.174Z,89.65
2018-11-04T16:36:17.009Z,89.53
2018-11-04T16:38:46.384Z,89.42
2018-11-04T16:41:16.453Z,89.63
2018-11-04T16:43:45.308Z,89.42
2018-11-04T16:46:16.277Z,89.87
2018-11-04T16:48:44.983Z,89.63
2018-11-04T16:51:15.367Z,89.49
2018-11-04T16:53:44.050Z,89.35
2018-11-04T16:56:12.935Z,89.11
2018-11-04T16:58:41.679Z,89.47
2018-11-04T17:01:10.325Z,89.20
2018-11-04T17:03:40.076Z,89.46
2018-11-04T17:06:08.690Z,89.59
2018-11-04T17:08:37.376Z,89.68
2018-11-04T17:11:06.323Z,89.66
2018-11-04T17:13:36.757Z,89.56
2018-11-04T17:16:06.016Z,89.71
2018-11-04T17:18:34.832Z,89.34
2018-11-04T17:21:06.695Z,89.23
2018-11-04T17:23:35.873Z,89.10
2018-11-04T17:26:04.724Z,89.52
2018-11-04T17:28:33.444Z,89.77
2018-11-04T17:31:02.342Z,89.68
2018-11-04T17:33:31.030Z,89.48
2018-11-04T17:36:01.056Z,89.78
2018-11-04T17:38:30.265Z,89.79
2018-11-04T17:41:00.934Z,89.35
2018-11-04T17:43:29.777Z,89.68
2018-11-04T17:45:58.500Z,89.50
2018-11-04T17:48:29.394Z,89.39
2018-11-04T17:50:58.069Z,89.49
2018-11-04T17:53:28.337Z,89.91
2018-11-04T17:55:57.700Z,89.55
2018-11-04T17:58:27.217Z,89.61
2018-11-04T18:00:56.293Z,89.68
2018-11-04T18:03:25.257Z,90.25
2018-11-04T18:05:53.922Z,89.97
2018-11-04T18:08:22.804Z,89.84
2018-11-04T18:10:52.496Z,89.74
2018-11-04T18:13:21.335Z,89.75
2018-11-04T18:15:50.680Z,89.84
2018-11-04T18:18:19.556Z,90.24
2018-11-04T18:20:48.745Z,90.37
2018-11-04T18:23:17.396Z,90.23
2018-11-04T18:25:46.022Z,89.93
2018-11-04T18:28:14.769Z,89.76
2018-11-04T18:30:43.560Z,89.78
2018-11-04T18:33:12.267Z,89.75
2018-11-04T18:35:41.089Z,89.39
2018-11-04T18:38:09.811Z,89.36
2018-11-04T18:40:38.464Z,89.47
2018-11-04T18:43:07.196Z,89.46
2018-11-04T18:45:35.796Z,89.45
2018-11-04T18:48:05.489Z,89.37
2018-11-04T18:50:34.274Z,88.99
2018-11-04T18:53:04.492Z,88.96
2018-11-04T18:55:33.200Z,89.17
2018-11-04T18:58:02.704Z,88.98
2018-11-04T19:00:32.504Z,89.00
2018-11-04T19:03:01.522Z,89.19
2018-11-04T19:05:30.353Z,89.04
2018-11-04T19:07:59.045Z,89.14
2018-11-04T19:10:27.729Z,89.55
2018-11-04T19:12:57.820Z,89.28
2018-11-04T19:15:26.648Z,89.16
2018-11-04T19:17:55.795Z,88.98
2018-11-04T19:20:24.928Z,89.11
2018-11-04T19:22:53.594Z,89.20
2018-11-04T19:25:22.297Z,89.32
2018-11-04T19:27:51.013Z,89.09
2018-11-04T19:30:19.728Z,89.27
2018-11-04T19:32:50.173Z,89.31
2018-11-04T19:35:19.185Z,89.38
2018-11-04T19:37:47.962Z,89.43
2018-11-04T19:40:17.292Z,89.03
2018-11-04T19:42:46.583Z,89.14
2018-11-04T19:45:15.185Z,89.04
2018-11-04T19:47:43.896Z,88.73
2018-11-04T19:50:14.107Z,89.29
2018-11-04T19:52:43.113Z,89.45
2018-11-04T19:55:12.817Z,89.41
2018-11-04T19:57:41.525Z,88.91
2018-11-04T20:00:11.136Z,89.67
2018-11-04T20:02:40.620Z,90.01
2018-11-04T20:05:10.402Z,89.24
2018-11-04T20:07:39.850Z,89.12
2018-11-04T20:10:15.132Z,89.50
2018-11-04T20:12:49.240Z,89.45
2018-11-04T20:15:18.611Z,89.83
2018-11-04T20:17:48.236Z,89.96
2018-11-04T20:20:18.868Z,89.97
2018-11-04T20:22:47.600Z,89.75
2018-11-04T20:25:21.979Z,89.96
2018-11-04T20:27:51.672Z,90.37
2018-11-04T20:32:52.045Z,90.24
2018-11-04T20:35:20.820Z,90.20
2018-11-04T20:37:49.492Z,89.76
2018-11-04T20:40:23.512Z,89.40
2018-11-04T20:42:52.877Z,89.39
2018-11-04T20:45:22.031Z,89.41
2018-11-04T20:47:57.532Z,89.54
2018-11-04T20:50:31.880Z,89.71
2018-11-04T20:53:00.961Z,90.42
2018-11-04T20:55:35.260Z,89.94
2018-11-04T20:58:04.627Z,89.73
2018-11-04T21:00:33.258Z,89.84
2018-11-04T21:03:01.989Z,89.84
2018-11-04T21:05:35.326Z,90.21
2018-11-04T21:08:04.004Z,90.46
2018-11-04T21:10:33.901Z,90.38
2018-11-04T21:13:02.757Z,90.38
2018-11-04T21:15:35.527Z,90.30
2018-11-04T21:18:04.486Z,90.16
2018-11-04T21:20:33.160Z,89.86
2018-11-04T21:23:01.804Z,90.19
2018-11-04T21:25:36.187Z,90.67
2018-11-04T21:28:05.561Z,90.48
2018-11-04T21:30:34.110Z,90.25
2018-11-04T21:33:02.863Z,90.34
2018-11-04T21:35:31.583Z,90.45
2018-11-04T21:38:00.555Z,90.54
2018-11-04T21:40:28.998Z,90.71
2018-11-04T21:42:58.844Z,90.58
2018-11-04T21:45:27.557Z,91.20
2018-11-04T21:47:56.263Z,91.26
2018-11-04T21:50:24.904Z,90.70
2018-11-04T21:52:53.525Z,90.57
2018-11-04T21:55:28.037Z,90.43
2018-11-04T21:57:56.620Z,90.48
2018-11-04T22:00:25.617Z,90.58
2018-11-04T22:02:54.426Z,90.20
2018-11-04T22:05:28.676Z,90.58
2018-11-04T22:07:57.611Z,90.30
2018-11-04T22:10:26.368Z,89.97
2018-11-04T22:12:55.034Z,90.29
2018-11-04T22:15:24.942Z,90.23
2018-11-04T22:17:53.713Z,90.93
2018-11-04T22:20:24.068Z,90.80
2018-11-04T22:22:52.979Z,91.14
2018-11-04T22:25:22.138Z,91.35
2018-11-04T22:27:50.811Z,91.35
2018-11-04T22:30:19.466Z,91.25
2018-11-04T22:32:48.092Z,91.32
2018-11-04T22:35:16.801Z,91.37
2018-11-04T22:37:46.389Z,91.69
2018-11-04T22:40:16.244Z,91.69
2018-11-04T22:42:44.891Z,91.27
2018-11-04T22:45:14.692Z,91.55
2018-11-04T22:47:43.534Z,91.72
2018-11-04T22:50:15.358Z,92.11
2018-11-04T22:52:44.401Z,91.91
2018-11-04T22:55:13.854Z,92.06
2018-11-04T22:57:43.068Z,92.33
2018-11-04T23:00:17.267Z,92.56
2018-11-04T23:02:47.248Z,92.95
2018-11-04T23:05:22.200Z,93.41
2018-11-04T23:07:51.123Z,93.34
2018-11-04T23:10:19.779Z,93.29
2018-11-04T23:12:48.552Z,93.61
2018-11-04T23:15:17.203Z,93.42
2018-11-04T23:17:46.813Z,93.53
2018-11-04T23:20:15.434Z,93.20
2018-11-04T23:22:45.728Z,93.77
2018-11-04T23:25:15.624Z,93.52
2018-11-04T23:27:44.699Z,93.40
2018-11-04T23:30:15.203Z,93.39
2018-11-04T23:32:46.562Z,93.57
2018-11-04T23:35:15.230Z,93.83
2018-11-04T23:37:44.665Z,93.80
2018-11-04T23:40:13.600Z,93.62
2018-11-04T23:42:43.144Z,93.78
2018-11-04T23:45:13.313Z,94.43
2018-11-04T23:47:42.368Z,94.80
2018-11-04T23:50:13.141Z,94.98
2018-11-04T23:52:42.152Z,94.77
2018-11-04T23:55:12.725Z,94.22
2018-11-04T23:57:41.734Z,94.58
